sensor_id;sensor_type;location;lat;lon;timestamp;P1;durP1;ratioP1;P2;durP2;ratioP2
67028;SDS011;53934;52.142;11.738;2022-08-03T00:02:05;3.78;;;2.80;;
67028;SDS011;53934;52.142;11.738;2022-08-03T00:04:32;6.43;;;2.75;;
67028;SDS011;53934;52.142;11.738;2022-08-03T00:06:58;8.48;;;3.17;;
67028;SDS011;53934;52.142;11.738;2022-08-03T00:09:24;9.77;;;3.20;;
67028;SDS011;53934;52.142;11.738;2022-08-03T00:11:51;4.80;;;3.05;;
67028;SDS011;53934;52.142;11.738;2022-08-03T00:14:18;3.55;;;2.63;;
67028;SDS011;53934;52.142;11.738;2022-08-03T00:16:45;3.17;;;2.65;;
67028;SDS011;53934;52.142;11.738;2022-08-03T00:19:11;4.35;;;3.03;;
67028;SDS011;53934;52.142;11.738;2022-08-03T00:21:37;3.95;;;2.88;;
67028;SDS011;53934;52.142;11.738;2022-08-03T00:24:04;3.28;;;2.40;;
67028;SDS011;53934;52.142;11.738;2022-08-03T00:26:31;4.07;;;2.75;;
67028;SDS011;53934;52.142;11.738;2022-08-03T00:28:57;6.43;;;2.90;;
67028;SDS011;53934;52.142;11.738;2022-08-03T00:31:25;6.90;;;3.45;;
67028;SDS011;53934;52.142;11.738;2022-08-03T00:33:51;4.90;;;3.22;;
67028;SDS011;53934;52.142;11.738;2022-08-03T00:36:17;5.10;;;3.17;;
67028;SDS011;53934;52.142;11.738;2022-08-03T00:38:44;4.50;;;3.00;;
67028;SDS011;53934;52.142;11.738;2022-08-03T00:41:10;10.15;;;3.42;;
67028;SDS011;53934;52.142;11.738;2022-08-03T00:43:36;5.50;;;2.70;;
67028;SDS011;53934;52.142;11.738;2022-08-03T00:46:03;10.73;;;3.53;;
67028;SDS011;53934;52.142;11.738;2022-08-03T00:48:30;5.53;;;2.92;;
67028;SDS011;53934;52.142;11.738;2022-08-03T00:50:57;5.55;;;3.20;;
67028;SDS011;53934;52.142;11.738;2022-08-03T00:53:23;6.28;;;2.78;;
67028;SDS011;53934;52.142;11.738;2022-08-03T00:55:50;7.95;;;2.90;;
67028;SDS011;53934;52.142;11.738;2022-08-03T00:58:17;4.00;;;2.85;;
67028;SDS011;53934;52.142;11.738;2022-08-03T01:00:43;8.85;;;3.38;;
67028;SDS011;53934;52.142;11.738;2022-08-03T01:03:09;5.03;;;2.97;;
67028;SDS011;53934;52.142;11.738;2022-08-03T01:05:39;5.82;;;3.08;;
67028;SDS011;53934;52.142;11.738;2022-08-03T01:08:16;7.60;;;3.30;;
67028;SDS011;53934;52.142;11.738;2022-08-03T01:10:49;7.55;;;3.53;;
67028;SDS011;53934;52.142;11.738;2022-08-03T01:13:26;5.55;;;3.00;;
67028;SDS011;53934;52.142;11.738;2022-08-03T01:15:58;6.50;;;3.15;;
67028;SDS011;53934;52.142;11.738;2022-08-03T01:18:29;6.78;;;3.70;;
67028;SDS011;53934;52.142;11.738;2022-08-03T01:21:03;4.57;;;2.92;;
67028;SDS011;53934;52.142;11.738;2022-08-03T01:23:55;9.38;;;3.80;;
67028;SDS011;53934;52.142;11.738;2022-08-03T01:26:36;4.45;;;3.15;;
67028;SDS011;53934;52.142;11.738;2022-08-03T01:29:18;5.03;;;2.92;;
67028;SDS011;53934;52.142;11.738;2022-08-03T01:32:07;8.70;;;3.42;;
67028;SDS011;53934;52.142;11.738;2022-08-03T01:34:40;8.10;;;3.40;;
67028;SDS011;53934;52.142;11.738;2022-08-03T01:37:10;7.05;;;3.15;;
67028;SDS011;53934;52.142;11.738;2022-08-03T01:39:38;5.32;;;3.10;;
67028;SDS011;53934;52.142;11.738;2022-08-03T01:42:06;10.35;;;3.78;;
67028;SDS011;53934;52.142;11.738;2022-08-03T01:44:36;6.88;;;3.33;;
67028;SDS011;53934;52.142;11.738;2022-08-03T01:47:06;3.60;;;2.72;;
67028;SDS011;53934;52.142;11.738;2022-08-03T01:49:36;9.02;;;3.75;;
67028;SDS011;53934;52.142;11.738;2022-08-03T01:52:05;5.60;;;3.17;;
67028;SDS011;53934;52.142;11.738;2022-08-03T01:54:35;7.03;;;3.40;;
67028;SDS011;53934;52.142;11.738;2022-08-03T01:57:03;5.22;;;2.83;;
67028;SDS011;53934;52.142;11.738;2022-08-03T01:59:29;5.30;;;3.22;;
67028;SDS011;53934;52.142;11.738;2022-08-03T02:02:00;7.07;;;3.30;;
67028;SDS011;53934;52.142;11.738;2022-08-03T02:04:29;7.63;;;3.55;;
67028;SDS011;53934;52.142;11.738;2022-08-03T02:06:55;8.07;;;3.25;;
67028;SDS011;53934;52.142;11.738;2022-08-03T02:09:23;8.30;;;3.70;;
67028;SDS011;53934;52.142;11.738;2022-08-03T02:11:51;7.82;;;3.05;;
67028;SDS011;53934;52.142;11.738;2022-08-03T02:14:21;5.25;;;3.30;;
67028;SDS011;53934;52.142;11.738;2022-08-03T02:16:48;5.40;;;3.10;;
67028;SDS011;53934;52.142;11.738;2022-08-03T02:19:17;5.50;;;3.05;;
67028;SDS011;53934;52.142;11.738;2022-08-03T02:21:44;10.70;;;4.07;;
67028;SDS011;53934;52.142;11.738;2022-08-03T02:24:11;5.05;;;3.45;;
67028;SDS011;53934;52.142;11.738;2022-08-03T02:26:38;5.82;;;3.67;;
67028;SDS011;53934;52.142;11.738;2022-08-03T02:29:10;7.15;;;3.70;;
67028;SDS011;53934;52.142;11.738;2022-08-03T02:31:38;8.85;;;3.58;;
67028;SDS011;53934;52.142;11.738;2022-08-03T02:34:08;8.93;;;3.80;;
67028;SDS011;53934;52.142;11.738;2022-08-03T02:36:41;9.00;;;3.55;;
67028;SDS011;53934;52.142;11.738;2022-08-03T02:39:12;7.78;;;3.72;;
67028;SDS011;53934;52.142;11.738;2022-08-03T02:41:41;5.43;;;3.33;;
67028;SDS011;53934;52.142;11.738;2022-08-03T02:44:11;4.65;;;3.40;;
67028;SDS011;53934;52.142;11.738;2022-08-03T02:46:38;5.05;;;3.50;;
67028;SDS011;53934;52.142;11.738;2022-08-03T02:49:09;5.20;;;3.40;;
67028;SDS011;53934;52.142;11.738;2022-08-03T02:51:38;7.88;;;3.40;;
67028;SDS011;53934;52.142;11.738;2022-08-03T02:54:08;6.07;;;3.70;;
67028;SDS011;53934;52.142;11.738;2022-08-03T02:56:35;7.65;;;3.45;;
67028;SDS011;53934;52.142;11.738;2022-08-03T02:59:02;6.10;;;3.35;;
67028;SDS011;53934;52.142;11.738;2022-08-03T03:01:31;5.50;;;3.60;;
67028;SDS011;53934;52.142;11.738;2022-08-03T03:03:58;7.38;;;3.53;;
67028;SDS011;53934;52.142;11.738;2022-08-03T03:06:25;7.82;;;4.18;;
67028;SDS011;53934;52.142;11.738;2022-08-03T03:08:54;6.10;;;3.97;;
67028;SDS011;53934;52.142;11.738;2022-08-03T03:11:21;10.80;;;3.22;;
67028;SDS011;53934;52.142;11.738;2022-08-03T03:13:50;8.05;;;3.85;;
67028;SDS011;53934;52.142;11.738;2022-08-03T03:16:17;4.97;;;3.63;;
67028;SDS011;53934;52.142;11.738;2022-08-03T03:18:44;4.88;;;3.28;;
67028;SDS011;53934;52.142;11.738;2022-08-03T03:21:15;7.10;;;3.90;;
67028;SDS011;53934;52.142;11.738;2022-08-03T03:23:43;10.25;;;3.33;;
67028;SDS011;53934;52.142;11.738;2022-08-03T03:26:12;7.15;;;4.05;;
67028;SDS011;53934;52.142;11.738;2022-08-03T03:28:39;5.18;;;3.65;;
67028;SDS011;53934;52.142;11.738;2022-08-03T03:31:06;10.23;;;4.00;;
67028;SDS011;53934;52.142;11.738;2022-08-03T03:33:33;4.53;;;3.60;;
67028;SDS011;53934;52.142;11.738;2022-08-03T03:36:00;20.40;;;4.60;;
67028;SDS011;53934;52.142;11.738;2022-08-03T03:38:27;4.43;;;3.63;;
67028;SDS011;53934;52.142;11.738;2022-08-03T03:40:54;7.82;;;3.80;;
67028;SDS011;53934;52.142;11.738;2022-08-03T03:43:22;7.13;;;3.60;;
67028;SDS011;53934;52.142;11.738;2022-08-03T03:45:49;8.38;;;4.20;;
67028;SDS011;53934;52.142;11.738;2022-08-03T03:48:17;7.05;;;3.97;;
67028;SDS011;53934;52.142;11.738;2022-08-03T03:50:44;7.32;;;3.90;;
67028;SDS011;53934;52.142;11.738;2022-08-03T03:53:11;14.57;;;4.13;;
67028;SDS011;53934;52.142;11.738;2022-08-03T03:55:39;8.90;;;4.32;;
67028;SDS011;53934;52.142;11.738;2022-08-03T03:58:07;5.10;;;3.88;;
67028;SDS011;53934;52.142;11.738;2022-08-03T04:00:35;11.25;;;3.90;;
67028;SDS011;53934;52.142;11.738;2022-08-03T04:03:01;10.63;;;4.82;;
67028;SDS011;53934;52.142;11.738;2022-08-03T04:05:28;10.20;;;4.50;;
67028;SDS011;53934;52.142;11.738;2022-08-03T04:08:13;7.00;;;4.57;;
67028;SDS011;53934;52.142;11.738;2022-08-03T04:11:02;7.57;;;4.38;;
67028;SDS011;53934;52.142;11.738;2022-08-03T04:13:34;8.40;;;4.55;;
67028;SDS011;53934;52.142;11.738;2022-08-03T04:16:05;6.50;;;3.88;;
67028;SDS011;53934;52.142;11.738;2022-08-03T04:18:33;9.27;;;4.55;;
67028;SDS011;53934;52.142;11.738;2022-08-03T04:21:04;8.73;;;4.40;;
67028;SDS011;53934;52.142;11.738;2022-08-03T04:23:34;8.85;;;4.53;;
67028;SDS011;53934;52.142;11.738;2022-08-03T04:26:04;7.53;;;3.88;;
67028;SDS011;53934;52.142;11.738;2022-08-03T04:28:34;7.93;;;4.20;;
67028;SDS011;53934;52.142;11.738;2022-08-03T04:31:05;4.70;;;4.10;;
67028;SDS011;53934;52.142;11.738;2022-08-03T04:33:33;7.18;;;4.10;;
67028;SDS011;53934;52.142;11.738;2022-08-03T04:36:03;5.97;;;4.00;;
67028;SDS011;53934;52.142;11.738;2022-08-03T04:38:36;6.55;;;3.90;;
67028;SDS011;53934;52.142;11.738;2022-08-03T04:41:05;7.35;;;4.10;;
67028;SDS011;53934;52.142;11.738;2022-08-03T04:43:33;10.15;;;4.85;;
67028;SDS011;53934;52.142;11.738;2022-08-03T04:46:03;7.07;;;4.25;;
67028;SDS011;53934;52.142;11.738;2022-08-03T04:48:31;6.70;;;4.20;;
67028;SDS011;53934;52.142;11.738;2022-08-03T04:50:59;7.90;;;4.13;;
67028;SDS011;53934;52.142;11.738;2022-08-03T04:53:28;13.50;;;3.97;;
67028;SDS011;53934;52.142;11.738;2022-08-03T04:55:54;4.68;;;3.80;;
67028;SDS011;53934;52.142;11.738;2022-08-03T04:58:21;10.35;;;4.10;;
67028;SDS011;53934;52.142;11.738;2022-08-03T05:00:47;8.50;;;4.32;;
67028;SDS011;53934;52.142;11.738;2022-08-03T05:03:16;5.68;;;3.80;;
67028;SDS011;53934;52.142;11.738;2022-08-03T05:05:43;6.07;;;3.92;;
67028;SDS011;53934;52.142;11.738;2022-08-03T05:08:09;5.68;;;3.67;;
67028;SDS011;53934;52.142;11.738;2022-08-03T05:10:36;10.85;;;3.70;;
67028;SDS011;53934;52.142;11.738;2022-08-03T05:13:02;8.60;;;4.30;;
67028;SDS011;53934;52.142;11.738;2022-08-03T05:15:29;5.03;;;3.25;;
67028;SDS011;53934;52.142;11.738;2022-08-03T05:17:55;5.90;;;3.60;;
67028;SDS011;53934;52.142;11.738;2022-08-03T05:20:23;8.18;;;4.00;;
67028;SDS011;53934;52.142;11.738;2022-08-03T05:22:49;7.03;;;3.92;;
67028;SDS011;53934;52.142;11.738;2022-08-03T05:25:16;6.85;;;3.47;;
67028;SDS011;53934;52.142;11.738;2022-08-03T05:27:42;14.73;;;3.58;;
67028;SDS011;53934;52.142;11.738;2022-08-03T05:30:08;6.70;;;3.83;;
67028;SDS011;53934;52.142;11.738;2022-08-03T05:32:35;9.40;;;3.53;;
67028;SDS011;53934;52.142;11.738;2022-08-03T05:35:01;8.10;;;4.32;;
67028;SDS011;53934;52.142;11.738;2022-08-03T05:37:29;6.47;;;3.38;;
67028;SDS011;53934;52.142;11.738;2022-08-03T05:39:55;4.13;;;3.00;;
67028;SDS011;53934;52.142;11.738;2022-08-03T05:42:22;7.03;;;3.40;;
67028;SDS011;53934;52.142;11.738;2022-08-03T05:44:48;4.80;;;3.13;;
67028;SDS011;53934;52.142;11.738;2022-08-03T05:47:14;7.22;;;3.40;;
67028;SDS011;53934;52.142;11.738;2022-08-03T05:49:41;4.85;;;3.30;;
67028;SDS011;53934;52.142;11.738;2022-08-03T05:52:07;9.27;;;3.40;;
67028;SDS011;53934;52.142;11.738;2022-08-03T05:54:35;3.78;;;3.17;;
67028;SDS011;53934;52.142;11.738;2022-08-03T05:57:01;7.72;;;3.13;;
67028;SDS011;53934;52.142;11.738;2022-08-03T05:59:27;3.25;;;2.92;;
67028;SDS011;53934;52.142;11.738;2022-08-03T06:01:54;15.38;;;3.38;;
67028;SDS011;53934;52.142;11.738;2022-08-03T06:04:20;3.38;;;2.97;;
67028;SDS011;53934;52.142;11.738;2022-08-03T06:06:47;7.18;;;3.28;;
67028;SDS011;53934;52.142;11.738;2022-08-03T06:09:14;10.20;;;3.22;;
67028;SDS011;53934;52.142;11.738;2022-08-03T06:11:42;6.88;;;2.55;;
67028;SDS011;53934;52.142;11.738;2022-08-03T06:14:08;4.50;;;2.78;;
67028;SDS011;53934;52.142;11.738;2022-08-03T06:16:35;8.68;;;2.65;;
67028;SDS011;53934;52.142;11.738;2022-08-03T06:19:01;5.47;;;2.90;;
67028;SDS011;53934;52.142;11.738;2022-08-03T06:21:27;7.15;;;2.58;;
67028;SDS011;53934;52.142;11.738;2022-08-03T06:23:54;4.60;;;2.58;;
67028;SDS011;53934;52.142;11.738;2022-08-03T06:26:21;3.25;;;2.45;;
67028;SDS011;53934;52.142;11.738;2022-08-03T06:28:49;12.10;;;2.63;;
67028;SDS011;53934;52.142;11.738;2022-08-03T06:31:16;6.28;;;2.78;;
67028;SDS011;53934;52.142;11.738;2022-08-03T06:33:42;9.35;;;2.88;;
67028;SDS011;53934;52.142;11.738;2022-08-03T06:36:09;3.90;;;2.40;;
67028;SDS011;53934;52.142;11.738;2022-08-03T06:38:35;9.55;;;2.60;;
67028;SDS011;53934;52.142;11.738;2022-08-03T06:41:01;8.73;;;2.42;;
67028;SDS011;53934;52.142;11.738;2022-08-03T06:43:28;2.95;;;2.00;;
67028;SDS011;53934;52.142;11.738;2022-08-03T06:45:55;10.05;;;2.45;;
67028;SDS011;53934;52.142;11.738;2022-08-03T06:48:22;6.40;;;2.35;;
67028;SDS011;53934;52.142;11.738;2022-08-03T06:50:48;6.40;;;2.60;;
67028;SDS011;53934;52.142;11.738;2022-08-03T06:53:14;3.65;;;2.20;;
67028;SDS011;53934;52.142;11.738;2022-08-03T06:55:41;5.18;;;2.42;;
67028;SDS011;53934;52.142;11.738;2022-08-03T06:58:07;4.47;;;2.10;;
67028;SDS011;53934;52.142;11.738;2022-08-03T07:00:33;7.38;;;2.10;;
67028;SDS011;53934;52.142;11.738;2022-08-03T07:03:01;5.38;;;2.05;;
67028;SDS011;53934;52.142;11.738;2022-08-03T07:05:28;7.65;;;2.47;;
67028;SDS011;53934;52.142;11.738;2022-08-03T07:07:54;7.32;;;2.75;;
67028;SDS011;53934;52.142;11.738;2022-08-03T07:10:23;4.63;;;2.00;;
67028;SDS011;53934;52.142;11.738;2022-08-03T07:12:49;9.20;;;2.30;;
67028;SDS011;53934;52.142;11.738;2022-08-03T07:15:15;5.88;;;2.22;;
67028;SDS011;53934;52.142;11.738;2022-08-03T07:17:42;4.35;;;2.00;;
67028;SDS011;53934;52.142;11.738;2022-08-03T07:20:10;10.60;;;2.42;;
67028;SDS011;53934;52.142;11.738;2022-08-03T07:22:37;5.70;;;2.28;;
67028;SDS011;53934;52.142;11.738;2022-08-03T07:25:04;4.38;;;2.05;;
67028;SDS011;53934;52.142;11.738;2022-08-03T07:27:30;4.22;;;2.30;;
67028;SDS011;53934;52.142;11.738;2022-08-03T07:29:57;3.40;;;2.00;;
67028;SDS011;53934;52.142;11.738;2022-08-03T07:32:24;5.10;;;1.98;;
67028;SDS011;53934;52.142;11.738;2022-08-03T07:34:51;3.75;;;2.05;;
67028;SDS011;53934;52.142;11.738;2022-08-03T07:37:18;10.30;;;2.20;;
67028;SDS011;53934;52.142;11.738;2022-08-03T07:39:45;5.47;;;2.15;;
67028;SDS011;53934;52.142;11.738;2022-08-03T07:42:11;2.70;;;1.90;;
67028;SDS011;53934;52.142;11.738;2022-08-03T07:44:37;6.80;;;2.10;;
67028;SDS011;53934;52.142;11.738;2022-08-03T07:47:04;6.75;;;1.98;;
67028;SDS011;53934;52.142;11.738;2022-08-03T07:49:30;3.80;;;1.65;;
67028;SDS011;53934;52.142;11.738;2022-08-03T07:51:57;8.88;;;2.17;;
67028;SDS011;53934;52.142;11.738;2022-08-03T07:54:42;3.65;;;2.08;;
67028;SDS011;53934;52.142;11.738;2022-08-03T07:57:09;10.25;;;2.00;;
67028;SDS011;53934;52.142;11.738;2022-08-03T07:59:35;4.75;;;2.00;;
67028;SDS011;53934;52.142;11.738;2022-08-03T08:02:03;8.30;;;2.22;;
67028;SDS011;53934;52.142;11.738;2022-08-03T08:04:31;7.68;;;2.00;;
67028;SDS011;53934;52.142;11.738;2022-08-03T08:06:57;2.70;;;1.52;;
67028;SDS011;53934;52.142;11.738;2022-08-03T08:09:24;8.20;;;1.77;;
67028;SDS011;53934;52.142;11.738;2022-08-03T08:11:51;8.35;;;1.90;;
67028;SDS011;53934;52.142;11.738;2022-08-03T08:14:18;3.30;;;1.70;;
67028;SDS011;53934;52.142;11.738;2022-08-03T08:16:44;3.80;;;1.52;;
67028;SDS011;53934;52.142;11.738;2022-08-03T08:19:11;3.97;;;1.65;;
67028;SDS011;53934;52.142;11.738;2022-08-03T08:21:38;6.97;;;1.92;;
67028;SDS011;53934;52.142;11.738;2022-08-03T08:24:05;8.27;;;1.80;;
67028;SDS011;53934;52.142;11.738;2022-08-03T08:26:32;4.00;;;1.60;;
67028;SDS011;53934;52.142;11.738;2022-08-03T08:28:59;6.43;;;1.60;;
67028;SDS011;53934;52.142;11.738;2022-08-03T08:31:26;6.88;;;1.88;;
67028;SDS011;53934;52.142;11.738;2022-08-03T08:33:52;8.93;;;1.65;;
67028;SDS011;53934;52.142;11.738;2022-08-03T08:36:19;2.28;;;1.70;;
67028;SDS011;53934;52.142;11.738;2022-08-03T08:38:45;3.58;;;1.92;;
67028;SDS011;53934;52.142;11.738;2022-08-03T08:41:12;3.58;;;1.55;;
67028;SDS011;53934;52.142;11.738;2022-08-03T08:43:40;5.10;;;1.42;;
67028;SDS011;53934;52.142;11.738;2022-08-03T08:46:08;5.80;;;1.80;;
67028;SDS011;53934;52.142;11.738;2022-08-03T08:48:38;3.65;;;1.60;;
67028;SDS011;53934;52.142;11.738;2022-08-03T08:51:06;5.28;;;1.67;;
67028;SDS011;53934;52.142;11.738;2022-08-03T08:53:35;6.60;;;1.90;;
67028;SDS011;53934;52.142;11.738;2022-08-03T08:56:02;4.28;;;1.75;;
67028;SDS011;53934;52.142;11.738;2022-08-03T08:58:33;3.30;;;1.92;;
67028;SDS011;53934;52.142;11.738;2022-08-03T09:01:02;3.83;;;1.60;;
67028;SDS011;53934;52.142;11.738;2022-08-03T09:03:31;4.95;;;1.80;;
67028;SDS011;53934;52.142;11.738;2022-08-03T09:05:58;2.42;;;1.67;;
67028;SDS011;53934;52.142;11.738;2022-08-03T09:08:26;1.92;;;1.50;;
67028;SDS011;53934;52.142;11.738;2022-08-03T09:10:53;2.30;;;1.50;;
67028;SDS011;53934;52.142;11.738;2022-08-03T09:13:19;5.30;;;1.77;;
67028;SDS011;53934;52.142;11.738;2022-08-03T09:15:46;6.25;;;1.70;;
67028;SDS011;53934;52.142;11.738;2022-08-03T09:18:22;4.82;;;1.80;;
67028;SDS011;53934;52.142;11.738;2022-08-03T09:20:55;4.40;;;2.13;;
67028;SDS011;53934;52.142;11.738;2022-08-03T09:23:42;2.55;;;1.58;;
67028;SDS011;53934;52.142;11.738;2022-08-03T09:26:10;2.83;;;1.70;;
67028;SDS011;53934;52.142;11.738;2022-08-03T09:28:37;2.95;;;1.85;;
67028;SDS011;53934;52.142;11.738;2022-08-03T09:31:04;4.40;;;1.73;;
67028;SDS011;53934;52.142;11.738;2022-08-03T09:33:32;2.15;;;1.55;;
67028;SDS011;53934;52.142;11.738;2022-08-03T09:39:01;3.15;;;1.55;;
67028;SDS011;53934;52.142;11.738;2022-08-03T09:41:30;2.53;;;1.75;;
67028;SDS011;53934;52.142;11.738;2022-08-03T09:43:57;2.80;;;1.65;;
67028;SDS011;53934;52.142;11.738;2022-08-03T09:46:23;2.97;;;1.85;;
67028;SDS011;53934;52.142;11.738;2022-08-03T09:48:52;5.97;;;1.75;;
67028;SDS011;53934;52.142;11.738;2022-08-03T09:51:21;2.97;;;1.73;;
67028;SDS011;53934;52.142;11.738;2022-08-03T09:53:51;6.72;;;1.65;;
67028;SDS011;53934;52.142;11.738;2022-08-03T09:56:21;3.78;;;1.80;;
67028;SDS011;53934;52.142;11.738;2022-08-03T09:59:02;2.80;;;1.70;;
67028;SDS011;53934;52.142;11.738;2022-08-03T10:01:31;6.10;;;1.75;;
67028;SDS011;53934;52.142;11.738;2022-08-03T10:03:58;4.45;;;2.00;;
67028;SDS011;53934;52.142;11.738;2022-08-03T10:06:24;5.28;;;1.80;;
67028;SDS011;53934;52.142;11.738;2022-08-03T10:09:03;4.78;;;1.80;;
67028;SDS011;53934;52.142;11.738;2022-08-03T10:11:31;2.45;;;1.60;;
67028;SDS011;53934;52.142;11.738;2022-08-03T10:13:59;5.47;;;1.85;;
67028;SDS011;53934;52.142;11.738;2022-08-03T10:16:26;3.05;;;1.70;;
67028;SDS011;53934;52.142;11.738;2022-08-03T10:18:58;3.30;;;1.60;;
67028;SDS011;53934;52.142;11.738;2022-08-03T10:21:24;3.80;;;1.50;;
67028;SDS011;53934;52.142;11.738;2022-08-03T10:23:53;3.33;;;1.90;;
67028;SDS011;53934;52.142;11.738;2022-08-03T10:26:22;5.53;;;1.80;;
67028;SDS011;53934;52.142;11.738;2022-08-03T10:28:52;3.70;;;1.60;;
67028;SDS011;53934;52.142;11.738;2022-08-03T10:31:19;3.58;;;1.75;;
67028;SDS011;53934;52.142;11.738;2022-08-03T10:33:48;4.40;;;1.50;;
67028;SDS011;53934;52.142;11.738;2022-08-03T10:36:16;4.15;;;1.67;;
67028;SDS011;53934;52.142;11.738;2022-08-03T10:38:44;7.78;;;2.00;;
67028;SDS011;53934;52.142;11.738;2022-08-03T10:41:17;2.88;;;1.65;;
67028;SDS011;53934;52.142;11.738;2022-08-03T10:43:46;5.60;;;1.63;;
67028;SDS011;53934;52.142;11.738;2022-08-03T10:46:16;3.33;;;1.88;;
67028;SDS011;53934;52.142;11.738;2022-08-03T10:48:44;3.38;;;1.70;;
67028;SDS011;53934;52.142;11.738;2022-08-03T10:51:10;2.28;;;1.70;;
67028;SDS011;53934;52.142;11.738;2022-08-03T10:53:38;6.18;;;1.77;;
67028;SDS011;53934;52.142;11.738;2022-08-03T10:56:06;3.95;;;1.70;;
67028;SDS011;53934;52.142;11.738;2022-08-03T11:02:22;3.55;;;1.73;;
67028;SDS011;53934;52.142;11.738;2022-08-03T11:05:28;3.88;;;1.83;;
67028;SDS011;53934;52.142;11.738;2022-08-03T11:10:55;4.43;;;1.45;;
67028;SDS011;53934;52.142;11.738;2022-08-03T11:13:25;2.78;;;1.42;;
67028;SDS011;53934;52.142;11.738;2022-08-03T11:15:59;5.03;;;1.60;;
67028;SDS011;53934;52.142;11.738;2022-08-03T11:18:27;4.28;;;1.58;;
67028;SDS011;53934;52.142;11.738;2022-08-03T11:20:54;1.80;;;1.60;;
67028;SDS011;53934;52.142;11.738;2022-08-03T11:26:07;3.13;;;1.73;;
67028;SDS011;53934;52.142;11.738;2022-08-03T11:28:36;3.80;;;1.52;;
67028;SDS011;53934;52.142;11.738;2022-08-03T11:34:10;3.30;;;1.38;;
67028;SDS011;53934;52.142;11.738;2022-08-03T11:39:38;2.33;;;1.50;;
67028;SDS011;53934;52.142;11.738;2022-08-03T11:45:09;3.65;;;1.75;;
67028;SDS011;53934;52.142;11.738;2022-08-03T11:47:36;4.15;;;1.60;;
67028;SDS011;53934;52.142;11.738;2022-08-03T11:50:04;3.28;;;1.50;;
67028;SDS011;53934;52.142;11.738;2022-08-03T11:52:33;2.53;;;1.58;;
67028;SDS011;53934;52.142;11.738;2022-08-03T11:55:01;3.97;;;1.70;;
67028;SDS011;53934;52.142;11.738;2022-08-03T11:57:27;4.25;;;1.63;;
67028;SDS011;53934;52.142;11.738;2022-08-03T11:59:54;3.47;;;1.60;;
67028;SDS011;53934;52.142;11.738;2022-08-03T12:02:22;5.65;;;1.60;;
67028;SDS011;53934;52.142;11.738;2022-08-03T12:04:49;4.80;;;1.70;;
67028;SDS011;53934;52.142;11.738;2022-08-03T12:07:15;2.60;;;1.67;;
67028;SDS011;53934;52.142;11.738;2022-08-03T12:09:42;12.02;;;1.90;;
67028;SDS011;53934;52.142;11.738;2022-08-03T12:12:09;6.28;;;1.90;;
67028;SDS011;53934;52.142;11.738;2022-08-03T12:14:35;2.90;;;1.60;;
67028;SDS011;53934;52.142;11.738;2022-08-03T12:17:02;7.60;;;1.73;;
67028;SDS011;53934;52.142;11.738;2022-08-03T12:19:41;3.08;;;1.60;;
67028;SDS011;53934;52.142;11.738;2022-08-03T12:22:08;5.55;;;2.10;;
67028;SDS011;53934;52.142;11.738;2022-08-03T12:24:39;6.80;;;1.92;;
67028;SDS011;53934;52.142;11.738;2022-08-03T12:27:06;5.45;;;1.60;;
67028;SDS011;53934;52.142;11.738;2022-08-03T12:29:32;3.17;;;1.80;;
67028;SDS011;53934;52.142;11.738;2022-08-03T12:31:58;2.38;;;1.50;;
67028;SDS011;53934;52.142;11.738;2022-08-03T12:37:17;3.75;;;1.92;;
67028;SDS011;53934;52.142;11.738;2022-08-03T12:39:48;3.72;;;1.77;;
67028;SDS011;53934;52.142;11.738;2022-08-03T12:42:15;5.23;;;1.50;;
67028;SDS011;53934;52.142;11.738;2022-08-03T12:44:41;6.55;;;1.90;;
67028;SDS011;53934;52.142;11.738;2022-08-03T12:47:09;9.48;;;2.05;;
67028;SDS011;53934;52.142;11.738;2022-08-03T12:49:45;4.13;;;1.60;;
67028;SDS011;53934;52.142;11.738;2022-08-03T12:52:14;2.92;;;1.60;;
67028;SDS011;53934;52.142;11.738;2022-08-03T12:54:41;4.47;;;1.85;;
67028;SDS011;53934;52.142;11.738;2022-08-03T12:57:10;2.00;;;1.52;;
67028;SDS011;53934;52.142;11.738;2022-08-03T12:59:38;3.85;;;1.75;;
67028;SDS011;53934;52.142;11.738;2022-08-03T13:02:12;7.30;;;1.70;;
67028;SDS011;53934;52.142;11.738;2022-08-03T13:04:40;2.35;;;1.65;;
67028;SDS011;53934;52.142;11.738;2022-08-03T13:07:09;1.83;;;1.45;;
67028;SDS011;53934;52.142;11.738;2022-08-03T13:09:42;4.28;;;1.83;;
67028;SDS011;53934;52.142;11.738;2022-08-03T13:12:10;3.17;;;1.80;;
67028;SDS011;53934;52.142;11.738;2022-08-03T13:14:38;5.68;;;1.88;;
67028;SDS011;53934;52.142;11.738;2022-08-03T13:17:04;3.45;;;1.70;;
67028;SDS011;53934;52.142;11.738;2022-08-03T13:19:31;5.50;;;1.70;;
67028;SDS011;53934;52.142;11.738;2022-08-03T13:21:58;3.67;;;1.55;;
67028;SDS011;53934;52.142;11.738;2022-08-03T13:24:27;7.82;;;1.90;;
67028;SDS011;53934;52.142;11.738;2022-08-03T13:26:54;7.68;;;1.92;;
67028;SDS011;53934;52.142;11.738;2022-08-03T13:29:20;2.35;;;1.65;;
67028;SDS011;53934;52.142;11.738;2022-08-03T13:31:46;2.63;;;1.65;;
67028;SDS011;53934;52.142;11.738;2022-08-03T13:34:13;3.63;;;1.60;;
67028;SDS011;53934;52.142;11.738;2022-08-03T13:36:39;4.65;;;1.85;;
67028;SDS011;53934;52.142;11.738;2022-08-03T13:39:05;4.68;;;1.75;;
67028;SDS011;53934;52.142;11.738;2022-08-03T13:41:33;1.88;;;1.50;;
67028;SDS011;53934;52.142;11.738;2022-08-03T13:43:59;3.47;;;1.80;;
67028;SDS011;53934;52.142;11.738;2022-08-03T13:46:26;3.35;;;1.83;;
67028;SDS011;53934;52.142;11.738;2022-08-03T13:48:52;6.70;;;1.83;;
67028;SDS011;53934;52.142;11.738;2022-08-03T13:51:19;5.88;;;1.70;;
67028;SDS011;53934;52.142;11.738;2022-08-03T13:53:45;4.13;;;1.80;;
67028;SDS011;53934;52.142;11.738;2022-08-03T13:56:12;4.65;;;2.00;;
67028;SDS011;53934;52.142;11.738;2022-08-03T13:58:39;2.30;;;1.50;;
67028;SDS011;53934;52.142;11.738;2022-08-03T14:01:05;3.45;;;1.70;;
67028;SDS011;53934;52.142;11.738;2022-08-03T14:03:32;3.30;;;1.55;;
67028;SDS011;53934;52.142;11.738;2022-08-03T14:05:58;4.47;;;1.67;;
67028;SDS011;53934;52.142;11.738;2022-08-03T14:08:25;5.20;;;1.80;;
67028;SDS011;53934;52.142;11.738;2022-08-03T14:10:51;6.18;;;1.70;;
67028;SDS011;53934;52.142;11.738;2022-08-03T14:13:17;7.30;;;1.67;;
67028;SDS011;53934;52.142;11.738;2022-08-03T14:15:45;4.10;;;1.70;;
67028;SDS011;53934;52.142;11.738;2022-08-03T14:18:12;3.25;;;1.60;;
67028;SDS011;53934;52.142;11.738;2022-08-03T14:20:38;5.60;;;1.52;;
67028;SDS011;53934;52.142;11.738;2022-08-03T14:23:05;3.13;;;1.40;;
67028;SDS011;53934;52.142;11.738;2022-08-03T14:25:31;3.50;;;1.60;;
67028;SDS011;53934;52.142;11.738;2022-08-03T14:27:57;2.30;;;1.40;;
67028;SDS011;53934;52.142;11.738;2022-08-03T14:30:24;3.90;;;1.67;;
67028;SDS011;53934;52.142;11.738;2022-08-03T14:32:51;6.75;;;1.85;;
67028;SDS011;53934;52.142;11.738;2022-08-03T14:35:18;4.95;;;1.77;;
67028;SDS011;53934;52.142;11.738;2022-08-03T14:37:44;4.43;;;1.73;;
67028;SDS011;53934;52.142;11.738;2022-08-03T14:40:10;3.75;;;1.60;;
67028;SDS011;53934;52.142;11.738;2022-08-03T14:42:37;5.95;;;1.83;;
67028;SDS011;53934;52.142;11.738;2022-08-03T14:45:03;7.78;;;2.42;;
67028;SDS011;53934;52.142;11.738;2022-08-03T14:47:30;5.25;;;1.85;;
67028;SDS011;53934;52.142;11.738;2022-08-03T14:49:58;3.55;;;1.60;;
67028;SDS011;53934;52.142;11.738;2022-08-03T14:52:24;4.55;;;1.70;;
67028;SDS011;53934;52.142;11.738;2022-08-03T14:54:51;3.00;;;1.27;;
67028;SDS011;53934;52.142;11.738;2022-08-03T14:57:17;3.90;;;1.80;;
67028;SDS011;53934;52.142;11.738;2022-08-03T14:59:43;1.80;;;1.50;;
67028;SDS011;53934;52.142;11.738;2022-08-03T15:02:10;14.68;;;2.17;;
67028;SDS011;53934;52.142;11.738;2022-08-03T15:04:36;3.00;;;1.70;;